sensor_id;sensor_type;location;lat;lon;timestamp;temperature;humidity
60293;DHT22;52402;52.670;6.750;2023-03-01T00:01:16;-1.80;99.90
60293;DHT22;52402;52.670;6.750;2023-03-01T00:03:42;-1.90;99.90
60293;DHT22;52402;52.670;6.750;2023-03-01T00:06:08;-1.90;99.90
60293;DHT22;52402;52.670;6.750;2023-03-01T00:08:34;-2.00;99.90
60293;DHT22;52402;52.670;6.750;2023-03-01T00:11:23;-2.00;99.90
60293;DHT22;52402;52.670;6.750;2023-03-01T00:13:49;-2.00;99.90
60293;DHT22;52402;52.670;6.750;2023-03-01T00:16:19;-2.00;99.90
60293;DHT22;52402;52.670;6.750;2023-03-01T00:18:45;-2.10;99.90
60293;DHT22;52402;52.670;6.750;2023-03-01T00:21:11;-2.10;99.90
60293;DHT22;52402;52.670;6.750;2023-03-01T00:23:37;-2.00;99.90
60293;DHT22;52402;52.670;6.750;2023-03-01T00:26:06;-2.10;99.90
60293;DHT22;52402;52.670;6.750;2023-03-01T00:28:32;-2.00;99.90
60293;DHT22;52402;52.670;6.750;2023-03-01T00:31:10;-2.00;99.90
60293;DHT22;52402;52.670;6.750;2023-03-01T00:33:36;-2.00;99.90
60293;DHT22;52402;52.670;6.750;2023-03-01T00:36:02;-2.00;99.90
60293;DHT22;52402;52.670;6.750;2023-03-01T00:38:29;-2.00;99.90
60293;DHT22;52402;52.670;6.750;2023-03-01T00:40:55;-2.10;99.90
60293;DHT22;52402;52.670;6.750;2023-03-01T00:43:21;-2.00;99.90
60293;DHT22;52402;52.670;6.750;2023-03-01T00:45:46;-2.10;99.90
60293;DHT22;52402;52.670;6.750;2023-03-01T00:48:12;-2.10;99.90
60293;DHT22;52402;52.670;6.750;2023-03-01T00:50:38;-2.10;99.90
60293;DHT22;52402;52.670;6.750;2023-03-01T00:53:03;-2.10;99.90
60293;DHT22;52402;52.670;6.750;2023-03-01T00:55:30;-2.10;99.90
60293;DHT22;52402;52.670;6.750;2023-03-01T00:57:56;-2.20;99.90
60293;DHT22;52402;52.670;6.750;2023-03-01T01:00:22;-2.30;99.90
60293;DHT22;52402;52.670;6.750;2023-03-01T01:02:47;-2.20;99.90
60293;DHT22;52402;52.670;6.750;2023-03-01T01:05:13;-2.20;99.90
60293;DHT22;52402;52.670;6.750;2023-03-01T01:07:39;-2.20;99.90
60293;DHT22;52402;52.670;6.750;2023-03-01T01:10:06;-2.30;99.90
60293;DHT22;52402;52.670;6.750;2023-03-01T01:12:32;-2.30;99.90
60293;DHT22;52402;52.670;6.750;2023-03-01T01:14:58;-2.30;99.90
60293;DHT22;52402;52.670;6.750;2023-03-01T01:17:23;-2.30;99.90
60293;DHT22;52402;52.670;6.750;2023-03-01T01:19:49;-2.30;99.90
60293;DHT22;52402;52.670;6.750;2023-03-01T01:22:15;-2.40;99.90
60293;DHT22;52402;52.670;6.750;2023-03-01T01:24:41;-2.40;99.90
60293;DHT22;52402;52.670;6.750;2023-03-01T01:27:06;-2.40;99.90
60293;DHT22;52402;52.670;6.750;2023-03-01T01:29:32;-2.30;99.90
60293;DHT22;52402;52.670;6.750;2023-03-01T01:31:58;-2.30;99.90
60293;DHT22;52402;52.670;6.750;2023-03-01T01:34:24;-2.30;99.90
60293;DHT22;52402;52.670;6.750;2023-03-01T01:36:53;-2.30;99.90
60293;DHT22;52402;52.670;6.750;2023-03-01T01:39:20;-2.30;99.90
60293;DHT22;52402;52.670;6.750;2023-03-01T01:41:46;-2.30;99.90
60293;DHT22;52402;52.670;6.750;2023-03-01T01:44:24;-2.30;99.90
60293;DHT22;52402;52.670;6.750;2023-03-01T01:49:29;-2.40;99.90
60293;DHT22;52402;52.670;6.750;2023-03-01T01:52:07;-2.50;99.90
60293;DHT22;52402;52.670;6.750;2023-03-01T01:55:05;-2.50;99.90
60293;DHT22;52402;52.670;6.750;2023-03-01T01:57:33;-2.50;99.90
60293;DHT22;52402;52.670;6.750;2023-03-01T02:00:21;-2.50;99.90
60293;DHT22;52402;52.670;6.750;2023-03-01T02:02:50;-2.50;99.90
60293;DHT22;52402;52.670;6.750;2023-03-01T02:08:01;-2.50;99.90
60293;DHT22;52402;52.670;6.750;2023-03-01T02:10:28;-2.50;99.90
60293;DHT22;52402;52.670;6.750;2023-03-01T02:12:54;-2.70;99.90
60293;DHT22;52402;52.670;6.750;2023-03-01T02:15:19;-2.70;99.90
60293;DHT22;52402;52.670;6.750;2023-03-01T02:17:45;-2.70;99.90
60293;DHT22;52402;52.670;6.750;2023-03-01T02:22:52;-2.70;99.90
60293;DHT22;52402;52.670;6.750;2023-03-01T02:28:08;-2.70;99.90
60293;DHT22;52402;52.670;6.750;2023-03-01T02:30:36;-2.80;99.90
60293;DHT22;52402;52.670;6.750;2023-03-01T02:33:03;-2.80;99.90
60293;DHT22;52402;52.670;6.750;2023-03-01T02:35:34;-3.00;99.90
60293;DHT22;52402;52.670;6.750;2023-03-01T02:38:01;-2.90;99.90
60293;DHT22;52402;52.670;6.750;2023-03-01T02:40:29;-2.90;99.90
60293;DHT22;52402;52.670;6.750;2023-03-01T02:42:57;-3.00;99.90
60293;DHT22;52402;52.670;6.750;2023-03-01T02:45:25;-3.00;99.90
60293;DHT22;52402;52.670;6.750;2023-03-01T02:47:54;-3.00;99.90
60293;DHT22;52402;52.670;6.750;2023-03-01T02:53:25;-3.10;99.90
60293;DHT22;52402;52.670;6.750;2023-03-01T02:55:53;-3.10;99.90
60293;DHT22;52402;52.670;6.750;2023-03-01T02:58:19;-3.20;99.90
60293;DHT22;52402;52.670;6.750;2023-03-01T03:00:45;-3.10;99.90
60293;DHT22;52402;52.670;6.750;2023-03-01T03:03:20;-3.10;99.90
60293;DHT22;52402;52.670;6.750;2023-03-01T03:05:47;-3.20;99.90
60293;DHT22;52402;52.670;6.750;2023-03-01T03:08:14;-3.10;99.90
60293;DHT22;52402;52.670;6.750;2023-03-01T03:10:42;-3.20;99.90
60293;DHT22;52402;52.670;6.750;2023-03-01T03:13:13;-3.20;99.90
60293;DHT22;52402;52.670;6.750;2023-03-01T03:15:39;-3.30;99.90
60293;DHT22;52402;52.670;6.750;2023-03-01T03:18:09;-3.30;99.90
60293;DHT22;52402;52.670;6.750;2023-03-01T03:20:35;-3.20;99.90
60293;DHT22;52402;52.670;6.750;2023-03-01T03:23:01;-3.20;99.90
60293;DHT22;52402;52.670;6.750;2023-03-01T03:25:28;-3.20;99.90
60293;DHT22;52402;52.670;6.750;2023-03-01T03:27:54;-3.20;99.90
60293;DHT22;52402;52.670;6.750;2023-03-01T03:30:23;-3.10;99.90
60293;DHT22;52402;52.670;6.750;2023-03-01T03:32:50;-3.10;99.90
60293;DHT22;52402;52.670;6.750;2023-03-01T03:35:26;-3.10;99.90
60293;DHT22;52402;52.670;6.750;2023-03-01T03:37:56;-3.10;99.90
60293;DHT22;52402;52.670;6.750;2023-03-01T03:40:39;-3.10;99.90
60293;DHT22;52402;52.670;6.750;2023-03-01T03:43:07;-3.20;99.90
60293;DHT22;52402;52.670;6.750;2023-03-01T03:45:33;-3.20;99.90
60293;DHT22;52402;52.670;6.750;2023-03-01T03:48:00;-3.10;99.90
60293;DHT22;52402;52.670;6.750;2023-03-01T03:50:25;-3.10;99.90
60293;DHT22;52402;52.670;6.750;2023-03-01T03:52:51;-3.20;99.90
60293;DHT22;52402;52.670;6.750;2023-03-01T03:55:17;-3.10;99.90
60293;DHT22;52402;52.670;6.750;2023-03-01T03:57:46;-3.10;99.90
60293;DHT22;52402;52.670;6.750;2023-03-01T04:00:18;-3.10;99.90
60293;DHT22;52402;52.670;6.750;2023-03-01T04:02:45;-3.10;99.90
60293;DHT22;52402;52.670;6.750;2023-03-01T04:05:13;-3.10;99.90
60293;DHT22;52402;52.670;6.750;2023-03-01T04:07:41;-3.20;99.90
60293;DHT22;52402;52.670;6.750;2023-03-01T04:10:13;-3.20;99.90
60293;DHT22;52402;52.670;6.750;2023-03-01T04:12:39;-3.10;99.90
60293;DHT22;52402;52.670;6.750;2023-03-01T04:15:06;-3.20;99.90
60293;DHT22;52402;52.670;6.750;2023-03-01T04:17:40;-3.40;99.90
60293;DHT22;52402;52.670;6.750;2023-03-01T04:20:06;-3.30;99.90
60293;DHT22;52402;52.670;6.750;2023-03-01T04:22:32;-3.40;99.90
60293;DHT22;52402;52.670;6.750;2023-03-01T04:24:58;-3.40;99.90
60293;DHT22;52402;52.670;6.750;2023-03-01T04:27:32;-3.50;99.90
60293;DHT22;52402;52.670;6.750;2023-03-01T04:29:58;-3.50;99.90
60293;DHT22;52402;52.670;6.750;2023-03-01T04:32:24;-3.50;99.90
60293;DHT22;52402;52.670;6.750;2023-03-01T04:34:49;-3.50;99.90
60293;DHT22;52402;52.670;6.750;2023-03-01T04:37:15;-3.50;99.90
60293;DHT22;52402;52.670;6.750;2023-03-01T04:39:41;-3.50;99.90
60293;DHT22;52402;52.670;6.750;2023-03-01T04:42:14;-3.50;99.90
60293;DHT22;52402;52.670;6.750;2023-03-01T04:44:40;-3.40;99.90
60293;DHT22;52402;52.670;6.750;2023-03-01T04:47:06;-3.40;99.90
60293;DHT22;52402;52.670;6.750;2023-03-01T04:49:31;-3.40;99.90
60293;DHT22;52402;52.670;6.750;2023-03-01T04:51:57;-3.40;99.90
60293;DHT22;52402;52.670;6.750;2023-03-01T04:54:28;-3.40;99.90
60293;DHT22;52402;52.670;6.750;2023-03-01T04:56:54;-3.50;99.90
60293;DHT22;52402;52.670;6.750;2023-03-01T04:59:20;-3.50;99.90
60293;DHT22;52402;52.670;6.750;2023-03-01T05:01:48;-3.50;99.90
60293;DHT22;52402;52.670;6.750;2023-03-01T05:04:14;-3.60;99.90
60293;DHT22;52402;52.670;6.750;2023-03-01T05:06:40;-3.60;99.90
60293;DHT22;52402;52.670;6.750;2023-03-01T05:09:06;-3.60;99.90
60293;DHT22;52402;52.670;6.750;2023-03-01T05:11:31;-3.70;99.90
60293;DHT22;52402;52.670;6.750;2023-03-01T05:14:01;-3.70;99.90
60293;DHT22;52402;52.670;6.750;2023-03-01T05:16:27;-3.70;99.90
60293;DHT22;52402;52.670;6.750;2023-03-01T05:18:53;-3.70;99.90
60293;DHT22;52402;52.670;6.750;2023-03-01T05:21:21;-3.80;99.90
60293;DHT22;52402;52.670;6.750;2023-03-01T05:23:47;-3.80;99.90
60293;DHT22;52402;52.670;6.750;2023-03-01T05:26:16;-3.80;99.90
60293;DHT22;52402;52.670;6.750;2023-03-01T05:28:43;-3.90;99.90
60293;DHT22;52402;52.670;6.750;2023-03-01T05:31:09;-3.80;99.90
60293;DHT22;52402;52.670;6.750;2023-03-01T05:33:39;-3.90;99.90
60293;DHT22;52402;52.670;6.750;2023-03-01T05:36:06;-3.90;99.90
60293;DHT22;52402;52.670;6.750;2023-03-01T05:38:33;-4.00;99.90
60293;DHT22;52402;52.670;6.750;2023-03-01T05:40:58;-4.10;99.90
60293;DHT22;52402;52.670;6.750;2023-03-01T05:43:24;-4.10;99.90
60293;DHT22;52402;52.670;6.750;2023-03-01T05:45:50;-4.20;99.90
60293;DHT22;52402;52.670;6.750;2023-03-01T05:48:16;-4.20;99.90
60293;DHT22;52402;52.670;6.750;2023-03-01T05:50:45;-4.10;99.90
60293;DHT22;52402;52.670;6.750;2023-03-01T05:53:13;-4.10;99.90
60293;DHT22;52402;52.670;6.750;2023-03-01T05:55:39;-4.00;99.90
60293;DHT22;52402;52.670;6.750;2023-03-01T05:58:09;-4.00;99.90
60293;DHT22;52402;52.670;6.750;2023-03-01T06:00:35;-4.10;99.90
60293;DHT22;52402;52.670;6.750;2023-03-01T06:03:02;-4.20;99.90
60293;DHT22;52402;52.670;6.750;2023-03-01T06:05:28;-4.20;99.90
60293;DHT22;52402;52.670;6.750;2023-03-01T06:07:54;-4.20;99.90
60293;DHT22;52402;52.670;6.750;2023-03-01T06:10:21;-4.20;99.90
60293;DHT22;52402;52.670;6.750;2023-03-01T06:12:47;-4.20;99.90
60293;DHT22;52402;52.670;6.750;2023-03-01T06:15:15;-4.20;99.90
60293;DHT22;52402;52.670;6.750;2023-03-01T06:17:43;-4.10;99.90
60293;DHT22;52402;52.670;6.750;2023-03-01T06:20:13;-4.10;99.90
60293;DHT22;52402;52.670;6.750;2023-03-01T06:22:39;-4.10;99.90
60293;DHT22;52402;52.670;6.750;2023-03-01T06:25:05;-4.20;99.90
60293;DHT22;52402;52.670;6.750;2023-03-01T06:27:31;-4.10;99.90
60293;DHT22;52402;52.670;6.750;2023-03-01T06:29:57;-4.10;99.90
60293;DHT22;52402;52.670;6.750;2023-03-01T06:32:23;-4.20;99.90
60293;DHT22;52402;52.670;6.750;2023-03-01T06:34:49;-4.10;99.90
60293;DHT22;52402;52.670;6.750;2023-03-01T06:37:15;-4.10;99.90
60293;DHT22;52402;52.670;6.750;2023-03-01T06:39:40;-4.10;99.90
60293;DHT22;52402;52.670;6.750;2023-03-01T06:42:07;-4.10;99.90
60293;DHT22;52402;52.670;6.750;2023-03-01T06:44:33;-4.10;99.90
60293;DHT22;52402;52.670;6.750;2023-03-01T06:46:59;-4.10;99.90
60293;DHT22;52402;52.670;6.750;2023-03-01T06:49:24;-4.20;99.90
60293;DHT22;52402;52.670;6.750;2023-03-01T06:51:50;-4.20;99.90
60293;DHT22;52402;52.670;6.750;2023-03-01T06:54:16;-4.20;99.90
60293;DHT22;52402;52.670;6.750;2023-03-01T06:56:43;-4.10;99.90
60293;DHT22;52402;52.670;6.750;2023-03-01T06:59:11;-4.10;99.90
60293;DHT22;52402;52.670;6.750;2023-03-01T07:01:37;-4.00;99.90
60293;DHT22;52402;52.670;6.750;2023-03-01T07:04:04;-4.00;99.90
60293;DHT22;52402;52.670;6.750;2023-03-01T07:06:29;-4.00;99.90
60293;DHT22;52402;52.670;6.750;2023-03-01T07:08:55;-3.90;99.90
60293;DHT22;52402;52.670;6.750;2023-03-01T07:11:21;-3.90;99.90
60293;DHT22;52402;52.670;6.750;2023-03-01T07:13:48;-3.80;99.90
60293;DHT22;52402;52.670;6.750;2023-03-01T07:16:14;-3.70;99.90
60293;DHT22;52402;52.670;6.750;2023-03-01T07:18:41;-3.70;99.90
60293;DHT22;52402;52.670;6.750;2023-03-01T07:21:08;-3.60;99.90
60293;DHT22;52402;52.670;6.750;2023-03-01T07:23:34;-3.70;99.90
60293;DHT22;52402;52.670;6.750;2023-03-01T07:25:59;-3.50;99.90
60293;DHT22;52402;52.670;6.750;2023-03-01T07:28:26;-3.50;99.90
60293;DHT22;52402;52.670;6.750;2023-03-01T07:30:52;-3.40;99.90
60293;DHT22;52402;52.670;6.750;2023-03-01T07:33:17;-3.30;99.90
60293;DHT22;52402;52.670;6.750;2023-03-01T07:35:43;-3.20;99.90
60293;DHT22;52402;52.670;6.750;2023-03-01T07:38:09;-3.20;99.90
60293;DHT22;52402;52.670;6.750;2023-03-01T07:40:34;-3.10;99.90
60293;DHT22;52402;52.670;6.750;2023-03-01T07:43:00;-3.00;99.90
60293;DHT22;52402;52.670;6.750;2023-03-01T07:45:27;-3.00;99.90
60293;DHT22;52402;52.670;6.750;2023-03-01T07:47:53;-2.90;99.90
60293;DHT22;52402;52.670;6.750;2023-03-01T07:50:19;-2.90;99.90
60293;DHT22;52402;52.670;6.750;2023-03-01T07:52:46;-2.80;99.90
60293;DHT22;52402;52.670;6.750;2023-03-01T07:55:12;-2.70;99.90
60293;DHT22;52402;52.670;6.750;2023-03-01T07:57:38;-2.60;99.90
60293;DHT22;52402;52.670;6.750;2023-03-01T08:00:05;-2.50;99.90
60293;DHT22;52402;52.670;6.750;2023-03-01T08:02:31;-2.00;99.90
60293;DHT22;52402;52.670;6.750;2023-03-01T08:04:57;-1.80;99.90
60293;DHT22;52402;52.670;6.750;2023-03-01T08:07:23;-1.70;99.90
60293;DHT22;52402;52.670;6.750;2023-03-01T08:09:48;-1.50;99.90
60293;DHT22;52402;52.670;6.750;2023-03-01T08:12:14;-1.40;99.90
60293;DHT22;52402;52.670;6.750;2023-03-01T08:14:41;-1.30;99.90
60293;DHT22;52402;52.670;6.750;2023-03-01T08:17:07;-1.30;99.90
60293;DHT22;52402;52.670;6.750;2023-03-01T08:19:33;-1.10;99.90
60293;DHT22;52402;52.670;6.750;2023-03-01T08:22:03;-1.00;99.90
60293;DHT22;52402;52.670;6.750;2023-03-01T08:24:28;-0.90;99.90
60293;DHT22;52402;52.670;6.750;2023-03-01T08:26:54;-0.80;99.90
60293;DHT22;52402;52.670;6.750;2023-03-01T08:29:21;-0.70;99.90
60293;DHT22;52402;52.670;6.750;2023-03-01T08:31:47;-0.60;99.90
60293;DHT22;52402;52.670;6.750;2023-03-01T08:34:15;-0.50;99.90
60293;DHT22;52402;52.670;6.750;2023-03-01T08:36:43;-0.30;99.90
60293;DHT22;52402;52.670;6.750;2023-03-01T08:39:10;-0.20;99.90
60293;DHT22;52402;52.670;6.750;2023-03-01T08:41:38;0.00;99.90
60293;DHT22;52402;52.670;6.750;2023-03-01T08:44:04;0.10;99.90
60293;DHT22;52402;52.670;6.750;2023-03-01T08:46:35;0.20;99.90
60293;DHT22;52402;52.670;6.750;2023-03-01T08:49:15;0.30;99.90
60293;DHT22;52402;52.670;6.750;2023-03-01T08:51:41;0.40;99.90
60293;DHT22;52402;52.670;6.750;2023-03-01T08:54:11;0.40;99.90
60293;DHT22;52402;52.670;6.750;2023-03-01T08:56:37;0.60;99.90
60293;DHT22;52402;52.670;6.750;2023-03-01T08:59:02;0.70;99.90
60293;DHT22;52402;52.670;6.750;2023-03-01T09:01:29;0.80;99.90
60293;DHT22;52402;52.670;6.750;2023-03-01T09:03:54;0.90;99.90
60293;DHT22;52402;52.670;6.750;2023-03-01T09:06:20;1.00;99.90
60293;DHT22;52402;52.670;6.750;2023-03-01T09:08:49;1.10;99.90
60293;DHT22;52402;52.670;6.750;2023-03-01T09:11:21;1.30;99.90
60293;DHT22;52402;52.670;6.750;2023-03-01T09:13:47;1.40;99.90
60293;DHT22;52402;52.670;6.750;2023-03-01T09:16:16;1.60;99.90
60293;DHT22;52402;52.670;6.750;2023-03-01T09:18:44;1.70;99.90
60293;DHT22;52402;52.670;6.750;2023-03-01T09:21:12;1.80;99.90
60293;DHT22;52402;52.670;6.750;2023-03-01T09:23:46;2.00;99.90
60293;DHT22;52402;52.670;6.750;2023-03-01T09:26:15;2.10;99.90
60293;DHT22;52402;52.670;6.750;2023-03-01T09:28:46;2.30;99.90
60293;DHT22;52402;52.670;6.750;2023-03-01T09:31:12;2.50;99.90
60293;DHT22;52402;52.670;6.750;2023-03-01T09:33:39;2.70;99.90
60293;DHT22;52402;52.670;6.750;2023-03-01T09:36:10;2.90;99.90
60293;DHT22;52402;52.670;6.750;2023-03-01T09:38:36;3.00;99.90
60293;DHT22;52402;52.670;6.750;2023-03-01T09:41:01;3.10;99.90
60293;DHT22;52402;52.670;6.750;2023-03-01T09:43:52;3.20;99.90
60293;DHT22;52402;52.670;6.750;2023-03-01T09:46:21;3.30;99.90
60293;DHT22;52402;52.670;6.750;2023-03-01T09:48:56;3.40;99.90
60293;DHT22;52402;52.670;6.750;2023-03-01T09:51:30;3.50;99.90
60293;DHT22;52402;52.670;6.750;2023-03-01T09:53:56;3.70;99.90
60293;DHT22;52402;52.670;6.750;2023-03-01T09:56:37;3.70;99.90
60293;DHT22;52402;52.670;6.750;2023-03-01T10:04:50;4.00;99.90
60293;DHT22;52402;52.670;6.750;2023-03-01T10:09:45;4.10;99.90
60293;DHT22;52402;52.670;6.750;2023-03-01T10:12:18;4.20;99.90
60293;DHT22;52402;52.670;6.750;2023-03-01T10:17:30;4.40;99.90
60293;DHT22;52402;52.670;6.750;2023-03-01T10:20:21;4.40;99.90
60293;DHT22;52402;52.670;6.750;2023-03-01T10:22:47;4.60;99.90
60293;DHT22;52402;52.670;6.750;2023-03-01T10:25:24;4.60;99.90
60293;DHT22;52402;52.670;6.750;2023-03-01T10:28:01;4.60;99.90
60293;DHT22;52402;52.670;6.750;2023-03-01T10:30:39;4.70;99.90
60293;DHT22;52402;52.670;6.750;2023-03-01T10:33:24;4.70;99.90
60293;DHT22;52402;52.670;6.750;2023-03-01T10:35:51;4.70;99.90
60293;DHT22;52402;52.670;6.750;2023-03-01T10:38:18;4.70;99.90
60293;DHT22;52402;52.670;6.750;2023-03-01T10:43:21;4.80;99.90
60293;DHT22;52402;52.670;6.750;2023-03-01T10:45:47;4.90;99.90
60293;DHT22;52402;52.670;6.750;2023-03-01T10:48:20;4.90;99.90
60293;DHT22;52402;52.670;6.750;2023-03-01T10:50:50;4.90;99.90
60293;DHT22;52402;52.670;6.750;2023-03-01T10:56:02;5.10;99.90
60293;DHT22;52402;52.670;6.750;2023-03-01T10:58:29;5.10;99.90
60293;DHT22;52402;52.670;6.750;2023-03-01T11:01:30;5.20;99.90
60293;DHT22;52402;52.670;6.750;2023-03-01T11:06:28;5.30;99.90
60293;DHT22;52402;52.670;6.750;2023-03-01T11:08:54;5.40;99.90
60293;DHT22;52402;52.670;6.750;2023-03-01T11:11:29;5.50;99.90
60293;DHT22;52402;52.670;6.750;2023-03-01T11:16:38;5.70;99.90
60293;DHT22;52402;52.670;6.750;2023-03-01T11:19:16;5.80;99.90
60293;DHT22;52402;52.670;6.750;2023-03-01T11:22:18;5.90;99.90
60293;DHT22;52402;52.670;6.750;2023-03-01T11:24:53;5.90;99.90
60293;DHT22;52402;52.670;6.750;2023-03-01T11:27:28;5.90;99.90
60293;DHT22;52402;52.670;6.750;2023-03-01T11:35:27;6.30;99.90
60293;DHT22;52402;52.670;6.750;2023-03-01T11:40:33;6.30;99.90
60293;DHT22;52402;52.670;6.750;2023-03-01T11:43:02;6.40;99.90
60293;DHT22;52402;52.670;6.750;2023-03-01T11:51:41;6.70;99.90
60293;DHT22;52402;52.670;6.750;2023-03-01T11:54:26;6.80;99.90
60293;DHT22;52402;52.670;6.750;2023-03-01T11:57:47;6.70;99.90
60293;DHT22;52402;52.670;6.750;2023-03-01T12:10:27;7.20;99.90
60293;DHT22;52402;52.670;6.750;2023-03-01T12:13:31;7.20;99.90
60293;DHT22;52402;52.670;6.750;2023-03-01T12:16:20;7.30;99.90
60293;DHT22;52402;52.670;6.750;2023-03-01T12:19:02;7.40;99.90
60293;DHT22;52402;52.670;6.750;2023-03-01T12:29:46;7.80;99.90
60293;DHT22;52402;52.670;6.750;2023-03-01T12:32:25;7.90;99.90
60293;DHT22;52402;52.670;6.750;2023-03-01T12:35:24;8.10;99.90
60293;DHT22;52402;52.670;6.750;2023-03-01T12:43:54;8.10;99.90
60293;DHT22;52402;52.670;6.750;2023-03-01T12:51:59;8.20;99.90
60293;DHT22;52402;52.670;6.750;2023-03-01T12:54:28;8.30;99.90
60293;DHT22;52402;52.670;6.750;2023-03-01T12:56:57;8.30;99.90
60293;DHT22;52402;52.670;6.750;2023-03-01T13:00:26;8.20;99.90
60293;DHT22;52402;52.670;6.750;2023-03-01T13:02:36;8.40;99.90
60293;DHT22;52402;52.670;6.750;2023-03-01T13:05:55;8.40;99.90
60293;DHT22;52402;52.670;6.750;2023-03-01T13:08:27;8.60;99.90
60293;DHT22;52402;52.670;6.750;2023-03-01T13:11:06;8.70;99.90
60293;DHT22;52402;52.670;6.750;2023-03-01T13:13:37;8.80;99.90
60293;DHT22;52402;52.670;6.750;2023-03-01T13:16:42;8.90;99.90
60293;DHT22;52402;52.670;6.750;2023-03-01T13:21:41;8.90;99.90
60293;DHT22;52402;52.670;6.750;2023-03-01T13:24:28;9.00;99.90
60293;DHT22;52402;52.670;6.750;2023-03-01T13:29:54;9.00;99.90
60293;DHT22;52402;52.670;6.750;2023-03-01T13:34:52;9.10;99.90
60293;DHT22;52402;52.670;6.750;2023-03-01T13:37:23;9.10;99.90
60293;DHT22;52402;52.670;6.750;2023-03-01T13:39:51;9.10;99.90
60293;DHT22;52402;52.670;6.750;2023-03-01T13:44:57;9.30;99.90
60293;DHT22;52402;52.670;6.750;2023-03-01T13:47:23;9.20;99.90
60293;DHT22;52402;52.670;6.750;2023-03-01T13:50:01;9.10;99.90
60293;DHT22;52402;52.670;6.750;2023-03-01T13:58:22;8.80;99.90
60293;DHT22;52402;52.670;6.750;2023-03-01T14:00:59;8.80;99.90
60293;DHT22;52402;52.670;6.750;2023-03-01T14:03:25;8.70;99.90
60293;DHT22;52402;52.670;6.750;2023-03-01T14:08:34;8.70;99.90
60293;DHT22;52402;52.670;6.750;2023-03-01T14:17:00;8.70;99.90
60293;DHT22;52402;52.670;6.750;2023-03-01T14:19:30;8.70;99.90
60293;DHT22;52402;52.670;6.750;2023-03-01T14:22:23;8.80;99.90
60293;DHT22;52402;52.670;6.750;2023-03-01T14:24:51;8.80;99.90
60293;DHT22;52402;52.670;6.750;2023-03-01T14:27:18;8.80;99.90
60293;DHT22;52402;52.670;6.750;2023-03-01T14:29:44;8.80;99.90
60293;DHT22;52402;52.670;6.750;2023-03-01T14:32:21;8.80;99.90
60293;DHT22;52402;52.670;6.750;2023-03-01T14:34:49;8.80;99.90
60293;DHT22;52402;52.670;6.750;2023-03-01T14:37:19;8.90;99.90
60293;DHT22;52402;52.670;6.750;2023-03-01T14:39:46;8.90;99.90
60293;DHT22;52402;52.670;6.750;2023-03-01T14:42:12;8.90;99.90
60293;DHT22;52402;52.670;6.750;2023-03-01T14:44:42;8.90;99.90
60293;DHT22;52402;52.670;6.750;2023-03-01T14:47:17;8.90;99.90
60293;DHT22;52402;52.670;6.750;2023-03-01T14:49:45;8.90;99.90
60293;DHT22;52402;52.670;6.750;2023-03-01T14:52:21;8.90;99.90
60293;DHT22;52402;52.670;6.750;2023-03-01T14:54:51;8.90;99.90
60293;DHT22;52402;52.670;6.750;2023-03-01T14:57:23;8.90;99.90
60293;DHT22;52402;52.670;6.750;2023-03-01T14:59:54;8.80;99.90
60293;DHT22;52402;52.670;6.750;2023-03-01T15:02:25;8.80;99.90
60293;DHT22;52402;52.670;6.750;2023-03-01T15:04:54;8.70;99.90
60293;DHT22;52402;52.670;6.750;2023-03-01T15:07:24;8.60;99.90
60293;DHT22;52402;52.670;6.750;2023-03-01T15:09:52;8.60;99.90
60293;DHT22;52402;52.670;6.750;2023-03-01T15:12:37;8.50;99.90
60293;DHT22;52402;52.670;6.750;2023-03-01T15:15:21;8.50;99.90
60293;DHT22;52402;52.670;6.750;2023-03-01T15:17:54;8.50;99.90
60293;DHT22;52402;52.670;6.750;2023-03-01T15:20:23;8.40;99.90
60293;DHT22;52402;52.670;6.750;2023-03-01T15:22:51;8.30;99.90
60293;DHT22;52402;52.670;6.750;2023-03-01T15:25:24;8.20;99.90
60293;DHT22;52402;52.670;6.750;2023-03-01T15:27:52;8.20;99.90
60293;DHT22;52402;52.670;6.750;2023-03-01T15:30:25;8.10;99.90
60293;DHT22;52402;52.670;6.750;2023-03-01T15:33:18;8.00;99.90
60293;DHT22;52402;52.670;6.750;2023-03-01T15:35:50;7.90;99.90
60293;DHT22;52402;52.670;6.750;2023-03-01T15:38:36;7.80;99.90
60293;DHT22;52402;52.670;6.750;2023-03-01T15:41:46;7.80;99.90
60293;DHT22;52402;52.670;6.750;2023-03-01T15:44:17;7.70;99.90
60293;DHT22;52402;52.670;6.750;2023-03-01T15:46:46;7.70;99.90
60293;DHT22;52402;52.670;6.750;2023-03-01T15:49:35;7.60;99.90
60293;DHT22;52402;52.670;6.750;2023-03-01T15:52:03;7.60;99.90
60293;DHT22;52402;52.670;6.750;2023-03-01T15:54:30;7.50;99.90
60293;DHT22;52402;52.670;6.750;2023-03-01T15:56:56;7.40;99.90
60293;DHT22;52402;52.670;6.750;2023-03-01T15:59:22;7.40;99.90
60293;DHT22;52402;52.670;6.750;2023-03-01T16:01:48;7.30;99.90
60293;DHT22;52402;52.670;6.750;2023-03-01T16:04:16;7.30;99.90
60293;DHT22;52402;52.670;6.750;2023-03-01T16:06:53;7.20;99.90
60293;DHT22;52402;52.670;6.750;2023-03-01T16:09:23;7.20;99.90
60293;DHT22;52402;52.670;6.750;2023-03-01T16:11:49;7.10;99.90
60293;DHT22;52402;52.670;6.750;2023-03-01T16:14:16;7.20;99.90
60293;DHT22;52402;52.670;6.750;2023-03-01T16:16:42;7.30;99.90
60293;DHT22;52402;52.670;6.750;2023-03-01T16:19:08;7.20;99.90
60293;DHT22;52402;52.670;6.750;2023-03-01T16:21:34;7.20;99.90
60293;DHT22;52402;52.670;6.750;2023-03-01T16:24:00;7.40;99.90
60293;DHT22;52402;52.670;6.750;2023-03-01T16:26:25;7.40;99.90
60293;DHT22;52402;52.670;6.750;2023-03-01T16:28:54;7.50;99.90
60293;DHT22;52402;52.670;6.750;2023-03-01T16:31:21;7.50;99.90
60293;DHT22;52402;52.670;6.750;2023-03-01T16:33:46;7.60;99.90
60293;DHT22;52402;52.670;6.750;2023-03-01T16:36:16;7.50;99.90
60293;DHT22;52402;52.670;6.750;2023-03-01T16:38:42;7.40;99.90
60293;DHT22;52402;52.670;6.750;2023-03-01T16:41:16;7.20;99.90
60293;DHT22;52402;52.670;6.750;2023-03-01T16:43:42;7.10;99.90
60293;DHT22;52402;52.670;6.750;2023-03-01T16:46:16;6.90;99.90
60293;DHT22;52402;52.670;6.750;2023-03-01T16:48:42;6.70;99.90
60293;DHT22;52402;52.670;6.750;2023-03-01T16:51:08;6.50;99.90
60293;DHT22;52402;52.670;6.750;2023-03-01T16:53:35;6.40;99.90
60293;DHT22;52402;52.670;6.750;2023-03-01T16:56:03;6.30;99.90
60293;DHT22;52402;52.670;6.750;2023-03-01T16:58:29;6.10;99.90
60293;DHT22;52402;52.670;6.750;2023-03-01T17:00:55;6.00;99.90
60293;DHT22;52402;52.670;6.750;2023-03-01T17:03:22;5.80;99.90
60293;DHT22;52402;52.670;6.750;2023-03-01T17:05:48;5.70;99.90
60293;DHT22;52402;52.670;6.750;2023-03-01T17:08:14;5.60;99.90
60293;DHT22;52402;52.670;6.750;2023-03-01T17:10:40;5.50;99.90
60293;DHT22;52402;52.670;6.750;2023-03-01T17:13:08;5.40;99.90
60293;DHT22;52402;52.670;6.750;2023-03-01T17:15:34;5.20;99.90
60293;DHT22;52402;52.670;6.750;2023-03-01T17:18:00;5.10;99.90
60293;DHT22;52402;52.670;6.750;2023-03-01T17:20:26;5.10;99.90
60293;DHT22;52402;52.670;6.750;2023-03-01T17:22:52;4.90;99.90
60293;DHT22;52402;52.670;6.750;2023-03-01T17:25:18;4.80;99.90
60293;DHT22;52402;52.670;6.750;2023-03-01T17:27:44;4.70;99.90
60293;DHT22;52402;52.670;6.750;2023-03-01T17:30:11;4.60;99.90
60293;DHT22;52402;52.670;6.750;2023-03-01T17:32:37;4.50;99.90
60293;DHT22;52402;52.670;6.750;2023-03-01T17:35:03;4.50;99.90
60293;DHT22;52402;52.670;6.750;2023-03-01T17:37:29;4.30;99.90